Time;durP1;ratioP1;P1;durP2;ratioP2;P2;SDS_P1;SDS_P2;PMS_P1;PMS_P2;Temp;Humidity;BMP_temperature;BMP_pressure;BME280_temperature;BME280_humidity;BME280_pressure;Samples;Min_cycle;Max_cycle;Signal;HPM_P1;HPM_P2
2021/06/16 00:02:16;;;;;;;6.43;2.53;;;;;;;;;;5117616;28;20451;-71
2021/06/16 00:04:44;;;;;;;5.63;1.73;;;;;;;;;;5111557;28;20451;-71
2021/06/16 00:07:12;;;;;;;4.67;2.30;;;;;;;;;;5105814;28;20769;-70
2021/06/16 00:09:43;;;;;;;5.00;2.07;;;;;;;;;;5099571;28;20451;-70
2021/06/16 00:12:11;;;;;;;4.43;2.00;;;;;;;;;;5104927;28;20500;-70
2021/06/16 00:14:39;;;;;;;4.20;2.13;;;;;;;;;;5109233;28;20443;-71
2021/06/16 00:17:09;;;;;;;5.30;2.63;;;;;;;;;;5116856;28;20455;-71
2021/06/16 00:19:37;;;;;;;7.00;2.07;;;;;;;;;;5117500;28;20446;-70
2021/06/16 00:22:05;;;;;;;3.70;2.20;;;;;;;;;;5117506;28;20469;-70
2021/06/16 00:24:34;;;;;;;3.67;1.83;;;;;;;;;;5117192;28;20454;-70
2021/06/16 00:27:02;;;;;;;6.57;2.83;;;;;;;;;;5112737;28;20497;-70
2021/06/16 00:29:29;;;;;;;5.80;2.23;;;;;;;;;;5097281;28;20459;-71
2021/06/16 00:31:57;;;;;;;8.67;2.20;;;;;;;;;;5117037;28;20512;-70
2021/06/16 00:34:27;;;;;;;5.03;1.93;;;;;;;;;;5117228;28;20455;-70
2021/06/16 00:36:55;;;;;;;7.33;2.20;;;;;;;;;;5116902;28;20725;-71
2021/06/16 00:39:23;;;;;;;2.90;2.17;;;;;;;;;;5116507;28;20862;-70
2021/06/16 00:41:51;;;;;;;5.20;2.30;;;;;;;;;;5117234;28;20461;-70
2021/06/16 00:44:18;;;;;;;6.37;1.90;;;;;;;;;;5117028;28;20446;-71
2021/06/16 00:46:47;;;;;;;4.90;2.13;;;;;;;;;;5116687;28;20458;-70
2021/06/16 00:49:15;;;;;;;10.10;2.47;;;;;;;;;;5116555;28;20507;-70
2021/06/16 00:51:44;;;;;;;6.77;2.03;;;;;;;;;;5096342;28;20505;-70
2021/06/16 00:54:12;;;;;;;4.03;1.60;;;;;;;;;;5096517;28;20723;-69
2021/06/16 00:56:46;;;;;;;4.97;2.40;;;;;;;;;;5096524;28;20736;-71
2021/06/16 00:59:14;;;;;;;7.70;2.40;;;;;;;;;;5096635;28;20521;-71
2021/06/16 01:01:56;;;;;;;8.07;2.87;;;;;;;;;;5096953;28;20738;-71
2021/06/16 01:04:28;;;;;;;5.40;2.13;;;;;;;;;;5097060;28;20512;-71
2021/06/16 01:07:16;;;;;;;8.73;1.90;;;;;;;;;;5096463;28;20567;-71
2021/06/16 01:09:54;;;;;;;5.23;1.80;;;;;;;;;;5095449;28;20447;-71
2021/06/16 01:12:24;;;;;;;4.83;2.33;;;;;;;;;;5096664;28;20499;-71
2021/06/16 01:14:53;;;;;;;8.27;2.27;;;;;;;;;;5096512;28;20469;-71
2021/06/16 01:17:23;;;;;;;6.47;2.13;;;;;;;;;;5096411;28;20456;-71
2021/06/16 01:20:03;;;;;;;4.57;2.17;;;;;;;;;;5095398;28;20451;-71
2021/06/16 01:22:39;;;;;;;6.50;2.53;;;;;;;;;;5096413;28;20451;-71
2021/06/16 01:25:11;;;;;;;5.80;2.60;;;;;;;;;;5096446;28;20817;-71
2021/06/16 01:27:41;;;;;;;4.70;2.20;;;;;;;;;;5096098;28;21083;-71
2021/06/16 01:30:09;;;;;;;6.40;2.67;;;;;;;;;;5096307;28;20458;-71
2021/06/16 01:32:37;;;;;;;4.10;2.00;;;;;;;;;;5096254;28;20956;-70
2021/06/16 01:35:06;;;;;;;8.13;2.50;;;;;;;;;;5112012;28;20474;-71
2021/06/16 01:37:34;;;;;;;5.13;2.57;;;;;;;;;;5112148;28;20871;-71
2021/06/16 01:40:02;;;;;;;8.10;3.27;;;;;;;;;;5116683;28;20868;-70
2021/06/16 01:42:31;;;;;;;5.43;2.33;;;;;;;;;;5116795;28;20454;-70
2021/06/16 01:45:01;;;;;;;6.50;3.53;;;;;;;;;;5116794;28;20455;-71
2021/06/16 01:47:30;;;;;;;4.80;2.60;;;;;;;;;;5116923;28;20462;-71
2021/06/16 01:49:58;;;;;;;4.07;2.77;;;;;;;;;;5116703;28;20504;-71
2021/06/16 01:52:27;;;;;;;4.43;2.40;;;;;;;;;;5116752;28;20497;-71
2021/06/16 01:54:56;;;;;;;3.50;2.47;;;;;;;;;;5116543;28;20873;-69
2021/06/16 01:57:25;;;;;;;3.30;2.30;;;;;;;;;;5116577;28;20454;-71
2021/06/16 01:59:54;;;;;;;4.20;2.33;;;;;;;;;;5118998;28;20461;-71
2021/06/16 02:02:26;;;;;;;5.17;2.40;;;;;;;;;;5120198;28;20458;-71
2021/06/16 02:04:54;;;;;;;10.83;2.90;;;;;;;;;;5119961;28;20462;-71
2021/06/16 02:07:25;;;;;;;4.03;2.50;;;;;;;;;;5120175;28;20466;-71
2021/06/16 02:09:54;;;;;;;5.37;2.60;;;;;;;;;;5119987;28;21021;-71
2021/06/16 02:12:22;;;;;;;5.40;2.73;;;;;;;;;;5120221;28;20497;-71
2021/06/16 02:14:53;;;;;;;3.50;2.37;;;;;;;;;;5119839;28;20458;-71
2021/06/16 02:17:21;;;;;;;5.33;3.27;;;;;;;;;;5119812;28;20527;-71
2021/06/16 02:19:51;;;;;;;5.97;3.33;;;;;;;;;;5119588;28;20850;-71
2021/06/16 02:22:19;;;;;;;3.67;2.60;;;;;;;;;;5119446;28;20878;-71
2021/06/16 02:24:47;;;;;;;6.50;2.70;;;;;;;;;;5118981;28;20451;-71
2021/06/16 02:27:15;;;;;;;6.93;3.17;;;;;;;;;;5119825;28;20724;-71
2021/06/16 02:29:44;;;;;;;4.60;2.73;;;;;;;;;;5119788;28;20447;-71
2021/06/16 02:32:15;;;;;;;5.10;2.40;;;;;;;;;;5119208;28;20745;-71
2021/06/16 02:34:44;;;;;;;6.10;2.73;;;;;;;;;;5118755;28;20478;-71
2021/06/16 02:37:16;;;;;;;6.30;2.67;;;;;;;;;;5119453;28;20491;-71
2021/06/16 02:39:46;;;;;;;6.83;3.43;;;;;;;;;;5119299;28;20457;-71
2021/06/16 02:42:14;;;;;;;6.93;2.63;;;;;;;;;;5119389;28;20519;-71
2021/06/16 02:44:43;;;;;;;3.80;2.50;;;;;;;;;;5119066;28;20455;-71
2021/06/16 02:47:11;;;;;;;6.77;2.97;;;;;;;;;;5119404;28;20731;-71
2021/06/16 02:49:43;;;;;;;4.57;2.73;;;;;;;;;;5119064;28;20434;-71
2021/06/16 02:52:11;;;;;;;5.33;2.60;;;;;;;;;;5119156;28;20486;-71
2021/06/16 02:54:41;;;;;;;4.83;2.73;;;;;;;;;;5118296;28;20483;-71
2021/06/16 02:57:10;;;;;;;3.40;2.30;;;;;;;;;;5118889;28;20450;-70
2021/06/16 02:59:39;;;;;;;4.10;2.60;;;;;;;;;;5119295;28;20461;-71
2021/06/16 03:02:07;;;;;;;4.20;2.70;;;;;;;;;;5118766;28;20763;-71
2021/06/16 03:04:35;;;;;;;10.03;3.73;;;;;;;;;;5118994;28;20482;-71
2021/06/16 03:07:04;;;;;;;5.00;4.00;;;;;;;;;;5118499;28;20450;-70
2021/06/16 03:09:33;;;;;;;3.70;2.87;;;;;;;;;;5118564;28;20889;-71
2021/06/16 03:12:03;;;;;;;6.87;3.50;;;;;;;;;;5105437;28;20479;-71
2021/06/16 03:14:32;;;;;;;6.03;3.23;;;;;;;;;;5097901;28;20459;-71
2021/06/16 03:17:01;;;;;;;5.77;3.00;;;;;;;;;;5112065;28;20454;-71
2021/06/16 03:19:29;;;;;;;4.17;2.70;;;;;;;;;;5097635;28;20455;-70
2021/06/16 03:21:57;;;;;;;5.90;2.53;;;;;;;;;;5099065;28;20856;-70
2021/06/16 03:24:26;;;;;;;3.73;2.80;;;;;;;;;;5102441;28;20469;-71
2021/06/16 03:26:54;;;;;;;6.70;3.37;;;;;;;;;;5104199;28;20536;-71
2021/06/16 03:29:24;;;;;;;3.70;2.77;;;;;;;;;;5104158;28;20450;-71
2021/06/16 03:31:52;;;;;;;4.00;3.10;;;;;;;;;;5110530;28;20751;-70
2021/06/16 03:34:20;;;;;;;4.83;3.03;;;;;;;;;;5100113;28;20877;-71
2021/06/16 03:36:50;;;;;;;4.60;2.90;;;;;;;;;;5117567;28;20443;-71
2021/06/16 03:39:18;;;;;;;5.57;2.80;;;;;;;;;;5118030;28;20454;-71
2021/06/16 03:41:58;;;;;;;6.63;3.27;;;;;;;;;;5114866;28;20798;-71
2021/06/16 03:44:56;;;;;;;6.07;2.40;;;;;;;;;;5113116;28;20459;-71
2021/06/16 03:47:32;;;;;;;8.00;3.30;;;;;;;;;;5108477;28;20451;-71
2021/06/16 03:50:00;;;;;;;6.10;2.80;;;;;;;;;;5103556;28;20449;-71
2021/06/16 03:52:28;;;;;;;7.23;3.27;;;;;;;;;;5104043;28;20482;-71
2021/06/16 03:54:56;;;;;;;4.87;2.83;;;;;;;;;;5116817;28;20443;-71
2021/06/16 03:57:25;;;;;;;5.30;3.20;;;;;;;;;;5117476;28;20450;-71
2021/06/16 03:59:54;;;;;;;5.50;2.83;;;;;;;;;;5116609;28;20447;-71
2021/06/16 04:02:23;;;;;;;5.87;3.00;;;;;;;;;;5117012;28;20481;-71
2021/06/16 04:04:51;;;;;;;4.53;3.57;;;;;;;;;;5117445;28;20542;-71
2021/06/16 04:07:19;;;;;;;8.90;4.27;;;;;;;;;;5116655;28;20439;-71
2021/06/16 04:09:50;;;;;;;5.60;3.00;;;;;;;;;;5116948;28;20457;-71
2021/06/16 04:12:19;;;;;;;8.10;3.10;;;;;;;;;;5117137;28;20839;-71
2021/06/16 04:14:47;;;;;;;7.87;3.73;;;;;;;;;;5117058;28;20443;-71
2021/06/16 04:17:17;;;;;;;5.77;3.30;;;;;;;;;;5117343;28;20439;-71
2021/06/16 04:19:45;;;;;;;9.17;3.50;;;;;;;;;;5116570;28;20520;-71
2021/06/16 04:22:13;;;;;;;7.57;3.90;;;;;;;;;;5115997;28;20443;-71
2021/06/16 04:24:41;;;;;;;4.97;3.77;;;;;;;;;;5116310;28;20525;-70
2021/06/16 04:27:09;;;;;;;5.67;3.03;;;;;;;;;;5116838;28;20454;-71
2021/06/16 04:29:41;;;;;;;4.83;3.33;;;;;;;;;;5117259;28;20457;-71
2021/06/16 04:32:09;;;;;;;5.33;3.33;;;;;;;;;;5116827;28;20512;-71
2021/06/16 04:34:39;;;;;;;6.03;3.90;;;;;;;;;;5116395;28;20545;-72
2021/06/16 04:37:08;;;;;;;5.33;3.17;;;;;;;;;;5116944;28;20454;-71
2021/06/16 04:39:36;;;;;;;7.00;2.90;;;;;;;;;;5117215;28;20478;-71
2021/06/16 04:42:04;;;;;;;9.00;3.47;;;;;;;;;;5116468;28;20519;-71
2021/06/16 04:44:38;;;;;;;7.57;3.20;;;;;;;;;;5116752;28;20466;-71
2021/06/16 04:47:07;;;;;;;6.00;3.20;;;;;;;;;;5116426;28;20474;-71
2021/06/16 04:49:35;;;;;;;8.10;3.50;;;;;;;;;;5116912;28;20463;-70
2021/06/16 04:52:04;;;;;;;8.87;3.20;;;;;;;;;;5116031;28;20451;-71
2021/06/16 04:54:32;;;;;;;4.80;3.00;;;;;;;;;;5116374;28;20465;-71
2021/06/16 04:57:04;;;;;;;4.27;2.77;;;;;;;;;;5116698;28;20447;-71
2021/06/16 04:59:32;;;;;;;7.77;2.87;;;;;;;;;;5116673;28;20459;-70
2021/06/16 05:02:00;;;;;;;7.47;3.20;;;;;;;;;;5115930;28;20949;-71
2021/06/16 05:04:28;;;;;;;4.00;2.73;;;;;;;;;;5115850;28;20557;-70
2021/06/16 05:06:56;;;;;;;4.00;1.90;;;;;;;;;;5115529;28;20741;-70
2021/06/16 05:09:26;;;;;;;4.80;2.57;;;;;;;;;;5116051;28;20454;-70
2021/06/16 05:11:53;;;;;;;5.10;2.10;;;;;;;;;;5115427;28;20443;-70
2021/06/16 05:14:55;;;;;;;4.07;1.97;;;;;;;;;;5115155;28;20515;-70
2021/06/16 05:17:24;;;;;;;4.43;1.40;;;;;;;;;;5110439;28;20524;-70
2021/06/16 05:19:56;;;;;;;4.63;1.87;;;;;;;;;;5114782;28;20478;-70
2021/06/16 05:22:24;;;;;;;5.77;1.90;;;;;;;;;;5113389;28;20478;-70
2021/06/16 05:24:54;;;;;;;6.27;1.60;;;;;;;;;;5113361;28;20499;-70
2021/06/16 05:27:23;;;;;;;5.77;1.70;;;;;;;;;;5115564;28;20447;-70
2021/06/16 05:29:53;;;;;;;6.90;2.50;;;;;;;;;;5114198;28;20461;-70
2021/06/16 05:32:21;;;;;;;6.00;1.80;;;;;;;;;;5114534;28;20455;-70
2021/06/16 05:34:49;;;;;;;6.90;1.63;;;;;;;;;;5118102;28;20741;-70
2021/06/16 05:37:18;;;;;;;3.47;1.67;;;;;;;;;;5115472;28;20526;-70
2021/06/16 05:39:46;;;;;;;3.40;1.50;;;;;;;;;;5117791;28;20450;-70
2021/06/16 05:42:16;;;;;;;3.77;1.80;;;;;;;;;;5108813;28;20462;-71
2021/06/16 05:44:44;;;;;;;3.47;1.63;;;;;;;;;;5115265;28;20461;-70
2021/06/16 05:47:12;;;;;;;4.27;1.70;;;;;;;;;;5117909;28;20874;-70
2021/06/16 05:49:40;;;;;;;5.00;1.40;;;;;;;;;;5115938;28;20446;-70
2021/06/16 05:52:08;;;;;;;5.47;1.63;;;;;;;;;;5108781;28;20475;-70
2021/06/16 05:54:38;;;;;;;2.83;1.53;;;;;;;;;;5107326;28;20891;-70
2021/06/16 05:57:08;;;;;;;3.03;1.77;;;;;;;;;;5117695;28;20458;-70
2021/06/16 05:59:38;;;;;;;4.87;1.57;;;;;;;;;;5104350;28;20774;-71
2021/06/16 06:02:06;;;;;;;7.87;1.87;;;;;;;;;;5102447;27;20909;-70
2021/06/16 06:04:39;;;;;;;5.17;1.67;;;;;;;;;;5100337;28;20450;-70
2021/06/16 06:07:07;;;;;;;4.10;1.57;;;;;;;;;;5116279;28;20546;-70
2021/06/16 06:09:35;;;;;;;5.67;2.70;;;;;;;;;;5111231;28;21111;-70
2021/06/16 06:12:03;;;;;;;3.70;1.37;;;;;;;;;;5117501;28;20458;-71
2021/06/16 06:14:30;;;;;;;7.27;2.00;;;;;;;;;;5117609;28;20482;-71
2021/06/16 06:17:00;;;;;;;5.67;1.90;;;;;;;;;;5117312;27;20450;-70
2021/06/16 06:19:31;;;;;;;6.53;1.73;;;;;;;;;;5123832;27;20445;-71
2021/06/16 06:21:59;;;;;;;4.77;1.90;;;;;;;;;;5137385;27;20458;-70
2021/06/16 06:24:27;;;;;;;7.07;2.23;;;;;;;;;;5113604;27;20459;-70
2021/06/16 06:26:56;;;;;;;4.30;2.27;;;;;;;;;;5116332;27;20461;-71
2021/06/16 06:29:26;;;;;;;5.20;1.47;;;;;;;;;;5117693;28;20482;-69
2021/06/16 06:31:54;;;;;;;4.00;1.70;;;;;;;;;;5116097;28;20488;-69
2021/06/16 06:34:24;;;;;;;5.57;1.87;;;;;;;;;;5117648;28;21102;-70
2021/06/16 06:36:53;;;;;;;5.70;2.03;;;;;;;;;;5116509;28;20462;-71
2021/06/16 06:39:21;;;;;;;5.00;1.67;;;;;;;;;;5117765;28;20730;-70
2021/06/16 06:41:50;;;;;;;3.40;1.50;;;;;;;;;;5117186;28;20458;-70
2021/06/16 06:44:22;;;;;;;4.73;1.77;;;;;;;;;;5115508;28;20443;-70
2021/06/16 06:46:51;;;;;;;6.07;2.13;;;;;;;;;;5116173;28;20454;-70
2021/06/16 06:49:19;;;;;;;2.13;1.23;;;;;;;;;;5117043;28;20483;-70
2021/06/16 06:51:50;;;;;;;4.93;1.80;;;;;;;;;;5115799;28;20459;-70
2021/06/16 06:54:18;;;;;;;7.20;1.60;;;;;;;;;;5116293;28;20489;-71
2021/06/16 06:56:46;;;;;;;3.77;1.70;;;;;;;;;;5116796;28;20459;-71
2021/06/16 06:59:15;;;;;;;6.17;2.27;;;;;;;;;;5116155;28;20447;-70
2021/06/16 07:01:43;;;;;;;4.30;2.00;;;;;;;;;;5116727;28;20470;-70
2021/06/16 07:04:15;;;;;;;5.20;2.00;;;;;;;;;;5116186;28;20835;-71
2021/06/16 07:06:47;;;;;;;4.70;1.67;;;;;;;;;;5116239;28;20863;-69
2021/06/16 07:09:23;;;;;;;3.97;2.20;;;;;;;;;;5115409;28;20460;-72
2021/06/16 07:11:52;;;;;;;4.20;1.67;;;;;;;;;;5116527;28;20608;-69
2021/06/16 07:14:22;;;;;;;4.33;1.60;;;;;;;;;;5117242;28;20747;-69
2021/06/16 07:16:53;;;;;;;3.20;1.80;;;;;;;;;;5116361;28;20468;-70
2021/06/16 07:19:21;;;;;;;6.23;1.97;;;;;;;;;;5115784;28;20786;-71
2021/06/16 07:21:51;;;;;;;4.33;1.73;;;;;;;;;;5116527;28;20471;-71
2021/06/16 07:24:20;;;;;;;4.63;2.17;;;;;;;;;;5115957;28;20457;-71
2021/06/16 07:26:48;;;;;;;3.73;1.70;;;;;;;;;;5114851;28;20451;-71
2021/06/16 07:29:17;;;;;;;4.73;2.63;;;;;;;;;;5115446;28;20459;-71
2021/06/16 07:31:47;;;;;;;3.30;1.90;;;;;;;;;;5116713;28;20478;-71
2021/06/16 07:34:16;;;;;;;5.00;2.40;;;;;;;;;;5115961;28;20578;-71
2021/06/16 07:36:44;;;;;;;4.23;2.30;;;;;;;;;;5094583;28;20451;-71
2021/06/16 07:39:13;;;;;;;2.57;2.10;;;;;;;;;;5097797;27;20444;-71
2021/06/16 07:41:44;;;;;;;5.60;2.27;;;;;;;;;;5136441;27;20454;-70
2021/06/16 07:44:17;;;;;;;5.40;1.80;;;;;;;;;;5135626;27;20445;-70
2021/06/16 07:46:45;;;;;;;3.17;1.93;;;;;;;;;;5104607;27;21148;-70
2021/06/16 07:49:17;;;;;;;3.57;2.30;;;;;;;;;;5109741;28;20461;-70
2021/06/16 07:51:45;;;;;;;3.50;2.10;;;;;;;;;;5115058;28;20565;-71
2021/06/16 07:54:13;;;;;;;3.37;1.90;;;;;;;;;;5115127;28;20479;-72
2021/06/16 07:56:43;;;;;;;3.90;1.60;;;;;;;;;;5112317;28;20450;-72
2021/06/16 07:59:13;;;;;;;4.47;2.10;;;;;;;;;;5109511;28;20509;-72
2021/06/16 08:01:43;;;;;;;4.57;1.93;;;;;;;;;;5095517;28;20466;-72
2021/06/16 08:04:11;;;;;;;3.07;1.70;;;;;;;;;;5114684;28;20847;-72
2021/06/16 08:06:50;;;;;;;4.87;1.70;;;;;;;;;;5113648;28;20512;-73
2021/06/16 08:09:19;;;;;;;4.73;2.10;;;;;;;;;;5095095;28;20770;-74
2021/06/16 08:11:52;;;;;;;20.30;7.13;;;;;;;;;;5089527;28;20516;-72
2021/06/16 08:14:24;;;;;;;4.20;1.70;;;;;;;;;;5113144;28;20518;-72
2021/06/16 08:16:52;;;;;;;4.87;2.00;;;;;;;;;;5113711;28;20455;-72
2021/06/16 08:19:22;;;;;;;4.03;1.80;;;;;;;;;;5114197;28;20447;-71
2021/06/16 08:21:51;;;;;;;7.53;2.50;;;;;;;;;;5114949;28;20551;-71
2021/06/16 08:24:19;;;;;;;5.07;1.97;;;;;;;;;;5114992;28;20475;-71
2021/06/16 08:26:49;;;;;;;4.70;2.23;;;;;;;;;;5114132;28;20439;-74
2021/06/16 08:29:20;;;;;;;4.77;2.50;;;;;;;;;;5112316;28;20477;-73
2021/06/16 08:32:05;;;;;;;4.60;2.30;;;;;;;;;;5114773;28;20447;-73
2021/06/16 08:34:35;;;;;;;6.77;1.87;;;;;;;;;;5105270;28;20585;-72
2021/06/16 08:37:09;;;;;;;5.57;2.77;;;;;;;;;;5112625;28;20544;-73
2021/06/16 08:39:39;;;;;;;4.67;2.10;;;;;;;;;;5114499;28;20450;-73
2021/06/16 08:42:11;;;;;;;4.20;2.40;;;;;;;;;;5109753;28;20963;-73
2021/06/16 08:44:39;;;;;;;4.60;2.63;;;;;;;;;;5103195;28;20458;-73
2021/06/16 08:47:09;;;;;;;5.43;2.30;;;;;;;;;;5104783;28;20482;-73
2021/06/16 08:49:40;;;;;;;3.90;2.27;;;;;;;;;;5109344;28;20473;-72
2021/06/16 08:52:09;;;;;;;7.93;2.33;;;;;;;;;;5105506;28;20515;-72
2021/06/16 08:54:37;;;;;;;6.00;2.50;;;;;;;;;;5113108;28;20479;-73
2021/06/16 08:57:07;;;;;;;4.17;2.30;;;;;;;;;;5101843;28;20464;-72
2021/06/16 08:59:37;;;;;;;3.70;1.80;;;;;;;;;;5111387;28;20462;-74
2021/06/16 09:02:08;;;;;;;6.83;1.80;;;;;;;;;;5108368;28;20455;-73
2021/06/16 09:04:53;;;;;;;6.70;2.10;;;;;;;;;;5112230;28;20466;-72
2021/06/16 09:07:23;;;;;;;6.70;2.37;;;;;;;;;;5104549;28;20473;-71
2021/06/16 09:09:51;;;;;;;8.80;2.93;;;;;;;;;;5107107;28;20456;-71
2021/06/16 09:12:43;;;;;;;6.53;2.97;;;;;;;;;;5104803;28;20431;-72
2021/06/16 09:15:12;;;;;;;6.63;2.40;;;;;;;;;;5118954;28;20505;-71
2021/06/16 09:17:40;;;;;;;4.77;3.10;;;;;;;;;;5109880;28;20460;-71
2021/06/16 09:20:13;;;;;;;3.20;1.83;;;;;;;;;;5106109;28;20450;-71
2021/06/16 09:22:46;;;;;;;4.60;2.30;;;;;;;;;;5106694;28;20451;-71
2021/06/16 09:25:16;;;;;;;6.97;2.67;;;;;;;;;;5099659;28;20451;-70
2021/06/16 09:27:53;;;;;;;5.63;2.77;;;;;;;;;;5098313;28;20447;-70
2021/06/16 09:30:42;;;;;;;4.97;2.43;;;;;;;;;;5098125;28;20455;-71
2021/06/16 09:33:15;;;;;;;3.90;2.03;;;;;;;;;;5110376;28;20825;-72
2021/06/16 09:35:48;;;;;;;4.10;2.10;;;;;;;;;;5101612;28;20493;-70
2021/06/16 09:38:24;;;;;;;14.90;4.67;;;;;;;;;;5119037;28;20449;-70
2021/06/16 09:40:55;;;;;;;5.50;2.70;;;;;;;;;;5117754;28;20769;-70
2021/06/16 09:43:31;;;;;;;8.13;3.30;;;;;;;;;;5118936;28;20907;-70
2021/06/16 09:46:00;;;;;;;6.83;4.70;;;;;;;;;;5109421;28;20886;-70
2021/06/16 09:48:32;;;;;;;7.73;3.80;;;;;;;;;;5102768;28;20447;-70
2021/06/16 09:51:16;;;;;;;5.60;2.77;;;;;;;;;;5117449;28;20551;-71
2021/06/16 09:54:18;;;;;;;4.70;3.13;;;;;;;;;;5098515;28;20483;-72
2021/06/16 09:56:48;;;;;;;5.10;3.83;;;;;;;;;;5098077;28;20450;-70
2021/06/16 09:59:37;;;;;;;6.20;2.97;;;;;;;;;;5111124;28;20546;-71
2021/06/16 10:02:21;;;;;;;4.03;3.20;;;;;;;;;;5097241;28;20487;-70
2021/06/16 10:04:56;;;;;;;4.13;2.83;;;;;;;;;;5097393;28;20475;-70
2021/06/16 10:07:27;;;;;;;6.80;2.97;;;;;;;;;;5097105;28;21041;-70
2021/06/16 10:10:00;;;;;;;5.30;2.73;;;;;;;;;;5096591;28;20448;-70
2021/06/16 10:12:32;;;;;;;7.10;3.90;;;;;;;;;;5099057;28;20727;-69
2021/06/16 10:15:02;;;;;;;6.47;3.80;;;;;;;;;;5116124;28;20603;-69
2021/06/16 10:17:31;;;;;;;9.73;3.90;;;;;;;;;;5113886;28;20455;-69
2021/06/16 10:20:02;;;;;;;7.57;2.50;;;;;;;;;;5115520;28;20498;-70
2021/06/16 10:22:37;;;;;;;7.53;3.33;;;;;;;;;;5114654;28;20835;-71
2021/06/16 10:25:11;;;;;;;5.10;3.03;;;;;;;;;;5116383;28;20451;-71
2021/06/16 10:27:41;;;;;;;8.77;3.90;;;;;;;;;;5116510;28;20969;-71
2021/06/16 10:30:12;;;;;;;6.57;3.60;;;;;;;;;;5116645;28;20605;-70
2021/06/16 10:32:49;;;;;;;6.30;3.17;;;;;;;;;;5116309;28;20430;-70
2021/06/16 10:35:36;;;;;;;4.50;2.73;;;;;;;;;;5104135;28;20479;-69
2021/06/16 10:38:14;;;;;;;7.23;3.00;;;;;;;;;;5111405;28;20451;-72
2021/06/16 10:40:49;;;;;;;7.40;3.87;;;;;;;;;;5116269;28;20545;-75
2021/06/16 10:43:30;;;;;;;6.90;5.10;;;;;;;;;;5111402;28;20482;-70
2021/06/16 10:46:03;;;;;;;7.10;3.50;;;;;;;;;;5117061;28;20473;-70
2021/06/16 10:49:06;;;;;;;4.70;4.17;;;;;;;;;;5117275;28;20463;-70
2021/06/16 10:54:28;;;;;;;16.80;8.83;;;;;;;;;;5050020;28;20480;-70
2021/06/16 10:57:00;;;;;;;6.67;3.77;;;;;;;;;;5093034;28;21055;-70
2021/06/16 10:59:47;;;;;;;7.10;4.53;;;;;;;;;;5117050;28;20431;-70
2021/06/16 11:02:17;;;;;;;7.07;3.40;;;;;;;;;;5116587;28;20454;-69
2021/06/16 11:04:45;;;;;;;4.43;2.77;;;;;;;;;;5115861;28;20482;-70
2021/06/16 11:07:30;;;;;;;5.43;2.87;;;;;;;;;;5116000;28;20450;-69
2021/06/16 11:10:04;;;;;;;4.80;3.20;;;;;;;;;;5115904;28;20736;-69
2021/06/16 11:12:34;;;;;;;7.60;4.77;;;;;;;;;;5094138;28;20454;-70
2021/06/16 11:15:04;;;;;;;8.70;5.30;;;;;;;;;;5095452;28;20488;-70
2021/06/16 11:17:46;;;;;;;7.13;4.93;;;;;;;;;;5095255;28;20473;-70
2021/06/16 11:20:24;;;;;;;5.73;3.70;;;;;;;;;;5095530;28;20485;-69
2021/06/16 11:22:59;;;;;;;5.50;4.83;;;;;;;;;;5098411;28;20476;-70
2021/06/16 11:25:35;;;;;;;5.43;3.93;;;;;;;;;;5115455;28;20453;-70
2021/06/16 11:28:07;;;;;;;11.70;4.37;;;;;;;;;;5115027;28;20442;-70
2021/06/16 11:30:38;;;;;;;13.27;6.57;;;;;;;;;;5115560;27;20459;-70
2021/06/16 11:33:27;;;;;;;6.10;4.60;;;;;;;;;;5113677;28;20450;-71
2021/06/16 11:36:14;;;;;;;8.20;4.77;;;;;;;;;;5106513;28;20760;-70
2021/06/16 11:38:43;;;;;;;7.13;2.90;;;;;;;;;;5109385;27;20451;-71
2021/06/16 11:41:24;;;;;;;6.13;3.73;;;;;;;;;;5115805;28;20484;-71
2021/06/16 11:44:04;;;;;;;6.37;4.00;;;;;;;;;;5107279;28;20450;-71
2021/06/16 11:46:35;;;;;;;11.20;8.40;;;;;;;;;;5098919;28;20454;-71
2021/06/16 11:49:06;;;;;;;6.13;3.80;;;;;;;;;;5115204;28;20561;-71
2021/06/16 11:51:39;;;;;;;6.60;4.70;;;;;;;;;;5113092;28;20462;-71
2021/06/16 11:54:24;;;;;;;6.40;3.20;;;;;;;;;;5114837;28;20995;-71
2021/06/16 11:56:56;;;;;;;5.37;3.27;;;;;;;;;;5115155;28;20446;-71
2021/06/16 11:59:36;;;;;;;6.77;4.30;;;;;;;;;;5114137;28;20443;-71
2021/06/16 12:02:14;;;;;;;8.30;4.43;;;;;;;;;;5115597;28;20524;-71
2021/06/16 12:04:47;;;;;;;4.93;3.20;;;;;;;;;;5115920;28;21115;-70
2021/06/16 12:07:23;;;;;;;6.20;3.90;;;;;;;;;;5116038;28;20504;-71
2021/06/16 12:09:54;;;;;;;4.50;3.57;;;;;;;;;;5115481;28;20450;-70
2021/06/16 12:12:27;;;;;;;9.37;4.07;;;;;;;;;;5114777;28;20474;-70
2021/06/16 12:15:09;;;;;;;5.53;3.53;;;;;;;;;;5116038;28;20567;-70
2021/06/16 12:17:55;;;;;;;13.83;7.70;;;;;;;;;;5094623;28;20471;-71
2021/06/16 12:20:28;;;;;;;5.33;3.80;;;;;;;;;;5094419;28;20518;-71
2021/06/16 12:22:57;;;;;;;5.53;3.90;;;;;;;;;;5115970;28;20515;-70
2021/06/16 12:25:31;;;;;;;5.77;3.90;;;;;;;;;;5115152;28;20496;-71
2021/06/16 12:28:01;;;;;;;8.80;4.60;;;;;;;;;;5114938;28;20549;-70
2021/06/16 12:30:31;;;;;;;7.50;4.23;;;;;;;;;;5115241;28;20443;-70
2021/06/16 12:33:17;;;;;;;4.90;3.77;;;;;;;;;;5114518;28;20453;-71
2021/06/16 12:36:05;;;;;;;5.80;4.13;;;;;;;;;;5114054;28;20812;-70
2021/06/16 12:38:37;;;;;;;6.00;4.73;;;;;;;;;;5114870;28;20455;-71
2021/06/16 12:41:20;;;;;;;5.07;4.10;;;;;;;;;;5114322;28;20537;-71
2021/06/16 12:43:50;;;;;;;5.37;4.47;;;;;;;;;;5115464;28;20446;-71
2021/06/16 12:46:18;;;;;;;5.67;3.23;;;;;;;;;;5115153;28;20454;-71
2021/06/16 12:49:12;;;;;;;4.57;3.20;;;;;;;;;;5129269;27;20446;-72
2021/06/16 12:51:48;;;;;;;7.57;4.63;;;;;;;;;;5134737;28;20461;-71
2021/06/16 12:54:24;;;;;;;4.60;3.77;;;;;;;;;;5119355;28;20525;-72
2021/06/16 12:57:03;;;;;;;4.67;3.73;;;;;;;;;;5115292;28;20470;-71
2021/06/16 12:59:42;;;;;;;6.50;4.63;;;;;;;;;;5114031;28;20438;-71
2021/06/16 13:02:10;;;;;;;8.00;3.87;;;;;;;;;;5114046;28;20481;-71
2021/06/16 13:04:52;;;;;;;7.13;3.90;;;;;;;;;;5114232;28;20512;-71
2021/06/16 13:07:23;;;;;;;5.73;3.17;;;;;;;;;;5114337;28;20457;-72
2021/06/16 13:10:18;;;;;;;;;;;;;;;;;;;;;
2021/06/16 13:12:55;;;;;;;6.10;3.60;;;;;;;;;;5109787;28;20450;-71
2021/06/16 13:18:35;;;;;;;6.13;4.30;;;;;;;;;;5114514;28;20833;-70
2021/06/16 13:24:17;;;;;;;5.27;4.77;;;;;;;;;;5105669;28;20446;-72
2021/06/16 13:27:06;;;;;;;7.50;4.40;;;;;;;;;;5115254;28;20434;-71
2021/06/16 13:29:50;;;;;;;6.17;4.07;;;;;;;;;;5113973;28;20506;-73
2021/06/16 13:32:21;;;;;;;8.93;3.80;;;;;;;;;;5110245;28;20438;-70
2021/06/16 13:34:51;;;;;;;7.40;4.43;;;;;;;;;;5113361;28;20442;-70
2021/06/16 13:37:20;;;;;;;5.30;4.67;;;;;;;;;;5113160;28;20443;-71
2021/06/16 13:39:49;;;;;;;5.73;3.53;;;;;;;;;;5113450;28;20443;-71
2021/06/16 13:42:21;;;;;;;5.20;4.00;;;;;;;;;;5112929;28;20835;-72
2021/06/16 13:44:52;;;;;;;4.70;3.77;;;;;;;;;;5112117;28;20455;-72
2021/06/16 13:47:24;;;;;;;8.13;5.00;;;;;;;;;;5113425;28;20858;-72
2021/06/16 13:49:59;;;;;;;5.03;4.37;;;;;;;;;;5112589;28;20477;-72
2021/06/16 13:52:27;;;;;;;8.30;5.10;;;;;;;;;;5113364;28;20511;-74
2021/06/16 13:54:56;;;;;;;5.90;3.90;;;;;;;;;;5115377;28;20467;-73
2021/06/16 14:00:09;;;;;;;5.73;4.60;;;;;;;;;;5115055;28;20550;-71
2021/06/16 14:02:42;;;;;;;5.27;4.40;;;;;;;;;;5115543;28;20454;-72
2021/06/16 14:05:15;;;;;;;7.47;4.27;;;;;;;;;;5116953;28;20443;-72
2021/06/16 14:07:47;;;;;;;5.17;4.00;;;;;;;;;;5116623;28;20700;-73
2021/06/16 14:10:27;;;;;;;5.23;4.70;;;;;;;;;;5116969;28;21105;-71
2021/06/16 14:13:07;;;;;;;5.57;4.57;;;;;;;;;;5114918;28;20454;-71
2021/06/16 14:18:38;;;;;;;4.67;3.83;;;;;;;;;;5118121;28;20470;-71
2021/06/16 14:21:09;;;;;;;4.80;3.90;;;;;;;;;;5117790;28;20450;-72
2021/06/16 14:23:42;;;;;;;4.60;4.20;;;;;;;;;;5098213;28;20734;-72
2021/06/16 14:26:23;;;;;;;6.13;4.40;;;;;;;;;;5114997;28;20448;-72
2021/06/16 14:28:52;;;;;;;9.70;4.13;;;;;;;;;;5084691;28;20456;-71
2021/06/16 14:31:21;;;;;;;8.57;5.43;;;;;;;;;;5102189;28;20455;-72
2021/06/16 14:33:52;;;;;;;6.10;4.60;;;;;;;;;;5106903;28;20790;-71
2021/06/16 14:36:22;;;;;;;6.77;4.90;;;;;;;;;;5110134;28;20454;-71
2021/06/16 14:38:56;;;;;;;7.90;5.73;;;;;;;;;;5114085;28;20549;-73
2021/06/16 14:41:25;;;;;;;6.20;4.97;;;;;;;;;;5107234;28;20450;-72
2021/06/16 14:43:58;;;;;;;7.70;5.77;;;;;;;;;;5108853;28;20970;-70
2021/06/16 14:46:28;;;;;;;6.57;5.07;;;;;;;;;;5107363;28;20479;-70
2021/06/16 14:51:39;;;;;;;9.53;5.30;;;;;;;;;;5114302;28;20533;-71
2021/06/16 14:54:13;;;;;;;10.60;4.90;;;;;;;;;;5116611;28;20434;-73
2021/06/16 14:56:43;;;;;;;8.77;5.57;;;;;;;;;;5105084;28;20535;-73
2021/06/16 14:59:12;;;;;;;9.47;6.73;;;;;;;;;;5117483;28;20702;-72
2021/06/16 15:01:40;;;;;;;7.50;5.70;;;;;;;;;;5116044;28;20916;-73
2021/06/16 15:04:08;;;;;;;7.90;5.93;;;;;;;;;;5117027;28;20447;-73
2021/06/16 15:06:37;;;;;;;8.50;5.90;;;;;;;;;;5115846;28;20526;-73
2021/06/16 15:09:13;;;;;;;6.23;5.63;;;;;;;;;;5115838;28;20439;-73
2021/06/16 15:11:41;;;;;;;10.27;7.03;;;;;;;;;;5115966;28;20447;-74
2021/06/16 15:14:09;;;;;;;6.40;5.30;;;;;;;;;;5116553;28;20717;-72
2021/06/16 15:16:37;;;;;;;6.43;5.73;;;;;;;;;;5112060;28;20938;-72
2021/06/16 15:19:07;;;;;;;12.10;5.57;;;;;;;;;;5112840;28;21067;-73
2021/06/16 15:21:35;;;;;;;7.73;5.47;;;;;;;;;;5109529;28;20463;-72
2021/06/16 15:24:04;;;;;;;6.80;5.43;;;;;;;;;;5116073;28;20503;-72
2021/06/16 15:26:34;;;;;;;11.20;6.53;;;;;;;;;;5111035;28;20517;-73
2021/06/16 15:29:02;;;;;;;6.80;4.90;;;;;;;;;;5114568;28;20513;-72